< Typhoon 199726 1997 Season Typhoon 199728 >
Typhoon 199727 (MORT)
General InformationTrack Information on Google MapsDetailed Wind InformationList of All Images || Disaster Info.ResourceGoogle EarthGE AnimationAtom FeedGeoJSON
Detalied Best Track (Time Zone = UTC)
Year Month Day Hour Lat. Long. Pressure (hPa) Wind (kt) Class Image Chart
1997 11 9 12 10.8 142.2 1006 0 2 Image Chart
1997 11 9 18 10.8 141.9 1006 0 2 Image Chart
1997 11 10 00 10.9 141.5 1004 0 2 Image Chart
1997 11 10 06 11.0 141.1 1004 0 2 Image Chart
1997 11 10 12 11.0 140.6 1004 0 2 Image Chart
1997 11 10 18 11.2 140.1 1000 0 2 Image Chart
1997 11 11 00 11.4 139.4 1000 0 2 Image Chart
1997 11 11 06 11.6 138.7 998 35 3 Image Chart
1997 11 11 12 12.0 137.7 996 40 3 Image Chart
1997 11 11 18 12.4 136.4 996 40 3 Image Chart
1997 11 12 00 12.7 135.5 994 45 3 Image Chart
1997 11 12 06 12.9 134.8 992 45 3 Image Chart
1997 11 12 12 13.2 134.1 992 45 3 Image Chart
1997 11 12 18 13.5 133.4 992 45 3 Image Chart
1997 11 13 00 13.8 132.6 992 45 3 Image Chart
1997 11 13 06 13.9 132.0 992 45 3 Image Chart
1997 11 13 12 14.0 131.2 992 45 3 Image Chart
1997 11 13 18 13.9 130.2 994 45 3 Image Chart
1997 11 14 00 13.8 129.0 994 45 3 Image Chart
1997 11 14 06 13.8 128.1 996 45 3 Image Chart
1997 11 14 12 14.0 127.3 996 40 3 Image Chart
1997 11 14 18 14.3 126.4 996 40 3 Image Chart
1997 11 15 00 14.5 125.5 996 40 3 Image Chart
1997 11 15 06 14.8 124.7 996 40 3 Image Chart
1997 11 15 12 15.0 123.8 1000 35 3 Image Chart
1997 11 15 18 15.0 123.4 1000 35 3 Image Chart
1997 11 16 00 15.1 122.8 1004 0 2 Image Chart
1997 11 16 06 15.3 122.5 1006 0 2 Image Chart
1997 11 16 12 15.5 122.3 1008 0 2 Image Chart
Japan Meteorological Agency Best Track Data | Correction Date : 1998-01-19
< Typhoon 199726 1997 Season Typhoon 199728 >

Help